createdAt,value
2022-10-15T00:01:48.681Z,4.78
2022-10-15T00:04:17.052Z,4.78
2022-10-15T00:06:45.323Z,4.20
2022-10-15T00:09:14.897Z,4.90
2022-10-15T00:11:43.221Z,4.95
2022-10-15T00:14:11.414Z,5.00
2022-10-15T00:16:39.740Z,4.75
2022-10-15T00:19:07.950Z,4.32
2022-10-15T00:21:37.001Z,4.68
2022-10-15T00:24:06.182Z,5.05
2022-10-15T00:26:35.950Z,4.97
2022-10-15T00:29:05.426Z,4.70
2022-10-15T00:31:33.887Z,5.20
2022-10-15T00:34:03.790Z,4.75
2022-10-15T00:36:34.173Z,5.13
2022-10-15T00:39:03.588Z,4.82
2022-10-15T00:41:36.592Z,5.32
2022-10-15T00:44:53.893Z,4.93
2022-10-15T00:47:29.440Z,5.50
2022-10-15T00:50:04.791Z,4.68
2022-10-15T00:52:41.188Z,5.10
2022-10-15T00:55:15.797Z,4.97
2022-10-15T00:57:48.358Z,5.13
2022-10-15T01:00:19.361Z,4.53
2022-10-15T01:02:47.931Z,4.55
2022-10-15T01:05:19.257Z,5.43
2022-10-15T01:07:47.507Z,4.85
2022-10-15T01:10:16.381Z,5.32
2022-10-15T01:13:02.681Z,5.00
2022-10-15T01:15:39.506Z,5.38
2022-10-15T01:18:13.678Z,5.57
2022-10-15T01:21:06.691Z,4.57
2022-10-15T01:24:27.296Z,4.82
2022-10-15T01:27:23.806Z,5.20
2022-10-15T01:30:30.513Z,5.03
2022-10-15T01:33:27.926Z,5.47
2022-10-15T01:36:06.462Z,6.65
2022-10-15T01:38:48.578Z,6.03
2022-10-15T01:41:22.950Z,6.03
2022-10-15T01:44:01.097Z,5.85
2022-10-15T01:46:37.752Z,5.97
2022-10-15T01:49:07.210Z,6.07
2022-10-15T01:51:41.364Z,5.95
2022-10-15T01:54:15.395Z,5.88
2022-10-15T01:56:49.648Z,5.75
2022-10-15T01:59:20.378Z,5.55
2022-10-15T02:01:50.277Z,5.63
2022-10-15T02:04:22.758Z,6.30
2022-10-15T02:06:59.492Z,5.85
2022-10-15T02:09:39.593Z,6.32
2022-10-15T02:12:22.493Z,6.65
2022-10-15T02:15:01.538Z,5.15
2022-10-15T02:17:36.972Z,6.18
2022-10-15T02:20:14.339Z,5.63
2022-10-15T02:22:50.453Z,5.47
2022-10-15T02:25:23.632Z,5.47
2022-10-15T02:27:55.888Z,6.10
2022-10-15T02:30:25.688Z,5.63
2022-10-15T02:32:59.703Z,6.22
2022-10-15T02:35:29.437Z,5.57
2022-10-15T02:38:03.762Z,6.03
2022-10-15T02:40:36.003Z,6.05
2022-10-15T02:43:07.090Z,6.18
2022-10-15T02:48:05.414Z,5.50
2022-10-15T02:50:33.694Z,7.03
2022-10-15T02:53:01.911Z,6.38
2022-10-15T02:55:30.172Z,5.03
2022-10-15T02:57:58.447Z,5.50
2022-10-15T03:00:26.759Z,6.60
2022-10-15T03:02:55.009Z,5.65
2022-10-15T03:05:24.877Z,6.05
2022-10-15T03:07:53.615Z,5.60
2022-10-15T03:10:21.902Z,6.72
2022-10-15T03:12:50.144Z,6.05
2022-10-15T03:15:18.665Z,5.75
2022-10-15T03:17:46.916Z,5.40
2022-10-15T03:20:15.188Z,6.00
2022-10-15T03:22:44.821Z,5.60
2022-10-15T03:25:13.215Z,5.88
2022-10-15T03:27:41.452Z,5.75
2022-10-15T03:30:11.411Z,5.15
2022-10-15T03:32:39.723Z,5.75
2022-10-15T03:35:09.342Z,5.82
2022-10-15T03:37:37.665Z,5.43
2022-10-15T03:40:13.493Z,5.35
2022-10-15T03:42:42.763Z,5.07
2022-10-15T03:45:11.976Z,5.55
2022-10-15T03:47:40.198Z,5.45
2022-10-15T03:50:09.418Z,5.35
2022-10-15T03:52:38.147Z,5.18
2022-10-15T03:55:10.647Z,5.65
2022-10-15T03:57:39.260Z,5.13
2022-10-15T04:00:10.227Z,5.10
2022-10-15T04:02:38.437Z,5.22
2022-10-15T04:05:07.226Z,5.78
2022-10-15T04:07:35.439Z,5.75
2022-10-15T04:10:03.979Z,5.30
2022-10-15T04:12:33.633Z,5.70
2022-10-15T04:15:01.874Z,5.63
2022-10-15T04:17:30.126Z,5.95
2022-10-15T04:19:58.515Z,5.25
2022-10-15T04:22:27.191Z,5.63
2022-10-15T04:24:55.549Z,5.82
2022-10-15T04:27:23.813Z,5.50
2022-10-15T04:29:53.449Z,6.15
2022-10-15T04:32:21.940Z,6.20
2022-10-15T04:34:50.592Z,5.85
2022-10-15T04:37:18.831Z,6.50
2022-10-15T04:39:46.997Z,6.15
2022-10-15T04:42:15.246Z,5.88
2022-10-15T04:44:43.576Z,5.40
2022-10-15T04:47:13.179Z,6.30
2022-10-15T04:49:41.401Z,6.68
2022-10-15T04:52:09.682Z,6.25
2022-10-15T04:54:37.947Z,6.03
2022-10-15T04:57:07.333Z,5.68
2022-10-15T04:59:35.615Z,6.18
2022-10-15T05:02:03.962Z,6.93
2022-10-15T05:04:33.572Z,6.43
2022-10-15T05:07:01.811Z,6.00
2022-10-15T05:09:30.072Z,7.10
2022-10-15T05:11:58.352Z,6.82
2022-10-15T05:14:26.985Z,7.68
2022-10-15T05:16:55.249Z,6.78
2022-10-15T05:19:23.613Z,6.68
2022-10-15T05:21:53.254Z,6.90
2022-10-15T05:24:21.533Z,7.32
2022-10-15T05:26:49.935Z,6.72
2022-10-15T05:29:18.164Z,7.85
2022-10-15T05:31:46.410Z,7.20
2022-10-15T05:34:14.723Z,8.40
2022-10-15T05:36:42.960Z,6.60
2022-10-15T05:39:13.633Z,7.13
2022-10-15T05:41:41.832Z,7.35
2022-10-15T05:44:10.158Z,7.53
2022-10-15T05:46:38.424Z,7.55
2022-10-15T05:49:06.690Z,7.63
2022-10-15T05:51:34.910Z,7.93
2022-10-15T05:54:03.160Z,8.57
2022-10-15T05:56:32.819Z,7.93
2022-10-15T05:59:01.088Z,8.35
2022-10-15T06:01:29.436Z,7.88
2022-10-15T06:03:57.747Z,7.95
2022-10-15T06:06:27.402Z,7.88
2022-10-15T06:08:56.574Z,7.75
2022-10-15T06:11:24.930Z,7.55
2022-10-15T06:13:54.678Z,7.53
2022-10-15T06:16:24.089Z,7.57
2022-10-15T06:18:53.777Z,8.00
2022-10-15T06:21:22.158Z,7.97
2022-10-15T06:23:50.449Z,7.28
2022-10-15T06:26:18.886Z,8.18
2022-10-15T06:28:47.255Z,7.20
2022-10-15T06:31:16.944Z,6.47
2022-10-15T06:33:45.153Z,6.45
2022-10-15T06:36:14.371Z,7.07
2022-10-15T06:38:44.261Z,6.90
2022-10-15T06:41:12.884Z,7.25
2022-10-15T06:43:41.142Z,6.70
2022-10-15T06:46:09.854Z,6.68
2022-10-15T06:48:39.558Z,6.93
2022-10-15T06:51:07.782Z,6.68
2022-10-15T06:53:36.283Z,7.55
2022-10-15T06:56:05.879Z,6.40
2022-10-15T06:58:34.209Z,7.53
2022-10-15T07:01:03.372Z,7.53
2022-10-15T07:03:31.677Z,7.43
2022-10-15T07:06:07.574Z,7.00
2022-10-15T07:08:36.957Z,7.90
2022-10-15T07:11:07.197Z,8.30
2022-10-15T07:13:35.524Z,8.43
2022-10-15T07:16:06.326Z,9.25
2022-10-15T07:18:35.255Z,8.10
2022-10-15T07:21:05.671Z,7.43
2022-10-15T07:23:34.227Z,6.63
2022-10-15T07:26:02.931Z,6.82
2022-10-15T07:28:31.390Z,7.75
2022-10-15T07:31:03.376Z,7.28
2022-10-15T07:33:34.322Z,6.93
2022-10-15T07:36:06.940Z,7.05
2022-10-15T07:38:35.487Z,6.03
2022-10-15T07:41:05.932Z,6.40
2022-10-15T07:43:34.422Z,4.95
2022-10-15T07:46:03.184Z,5.63
2022-10-15T07:48:31.850Z,5.72
2022-10-15T07:51:02.603Z,5.72
2022-10-15T07:53:33.071Z,5.80
2022-10-15T07:56:02.054Z,6.30
2022-10-15T07:58:30.894Z,5.38
2022-10-15T08:01:01.448Z,5.82
2022-10-15T08:03:31.204Z,5.10
2022-10-15T08:06:02.411Z,5.97
2022-10-15T08:08:32.959Z,5.32
2022-10-15T08:11:06.864Z,4.55
2022-10-15T08:13:35.147Z,4.50
2022-10-15T08:16:03.489Z,4.25
2022-10-15T08:18:31.772Z,4.00
2022-10-15T08:21:01.481Z,3.72
2022-10-15T08:23:31.323Z,3.70
2022-10-15T08:26:00.630Z,3.15
2022-10-15T08:28:29.349Z,3.95
2022-10-15T08:31:02.770Z,3.00
2022-10-15T08:33:35.227Z,4.15
2022-10-15T08:36:03.649Z,3.22
2022-10-15T08:38:33.455Z,3.17
2022-10-15T08:41:03.582Z,2.72
2022-10-15T08:43:39.221Z,2.90
2022-10-15T08:46:12.904Z,2.70
2022-10-15T08:48:50.134Z,2.60
2022-10-15T08:51:21.039Z,2.75
2022-10-15T08:53:54.053Z,2.50
2022-10-15T08:56:26.140Z,2.70
2022-10-15T08:59:04.924Z,2.28
2022-10-15T09:01:39.325Z,2.33
2022-10-15T09:04:21.382Z,2.08
2022-10-15T09:06:53.766Z,2.28
2022-10-15T09:09:33.408Z,1.92
2022-10-15T09:12:14.667Z,1.98
2022-10-15T09:14:48.742Z,2.03
2022-10-15T09:17:23.643Z,2.30
2022-10-15T09:19:55.759Z,1.90
2022-10-15T09:22:27.642Z,2.60
2022-10-15T09:24:57.991Z,2.53
2022-10-15T09:27:34.301Z,2.17
2022-10-15T09:30:13.428Z,2.80
2022-10-15T09:32:50.574Z,2.00
2022-10-15T09:35:28.165Z,2.67
2022-10-15T09:38:07.531Z,2.33
2022-10-15T09:40:52.410Z,2.50
2022-10-15T09:43:31.067Z,2.30
2022-10-15T09:46:00.361Z,2.50
2022-10-15T09:48:33.301Z,2.35
2022-10-15T09:51:08.259Z,2.53
2022-10-15T09:53:49.887Z,2.20
2022-10-15T09:56:24.840Z,1.90
2022-10-15T09:58:56.497Z,1.77
2022-10-15T10:01:26.442Z,1.50
2022-10-15T10:04:04.720Z,1.90
2022-10-15T10:06:32.975Z,1.80
2022-10-15T10:09:01.919Z,1.48
2022-10-15T10:11:50.564Z,1.70
2022-10-15T10:14:27.915Z,2.00
2022-10-15T10:17:18.612Z,1.92
2022-10-15T10:20:05.631Z,2.15
2022-10-15T10:22:46.623Z,1.83
2022-10-15T10:25:34.681Z,1.90
2022-10-15T10:28:17.515Z,1.60
2022-10-15T10:30:54.708Z,2.28
2022-10-15T10:33:29.710Z,2.42
2022-10-15T10:35:58.965Z,2.30
2022-10-15T10:38:30.985Z,2.30
2022-10-15T10:41:06.943Z,1.60
2022-10-15T10:43:39.407Z,1.52
2022-10-15T10:46:20.173Z,1.90
2022-10-15T10:48:50.706Z,1.92
2022-10-15T10:51:21.670Z,2.45
2022-10-15T10:53:54.708Z,2.42
2022-10-15T10:56:25.908Z,2.03
2022-10-15T10:59:01.437Z,1.85
2022-10-15T11:01:30.599Z,2.10
2022-10-15T11:03:58.896Z,1.73
2022-10-15T11:07:01.816Z,2.03
2022-10-15T11:09:52.406Z,1.70
2022-10-15T11:12:55.139Z,1.80
2022-10-15T11:15:40.209Z,1.90
2022-10-15T11:18:28.778Z,2.00
2022-10-15T11:21:07.249Z,1.80
2022-10-15T11:23:56.805Z,1.80
2022-10-15T11:26:52.488Z,1.30
2022-10-15T11:29:37.189Z,3.35
2022-10-15T11:32:22.207Z,1.55
2022-10-15T11:35:34.475Z,1.70
2022-10-15T11:38:21.183Z,1.70
2022-10-15T11:41:19.166Z,1.67
2022-10-15T11:44:03.491Z,1.60
2022-10-15T11:46:44.127Z,1.42
2022-10-15T11:49:33.087Z,1.30
2022-10-15T11:52:18.034Z,1.38
2022-10-15T11:55:00.953Z,1.30
2022-10-15T11:57:32.685Z,1.20
2022-10-15T12:00:07.489Z,1.60
2022-10-15T12:02:39.450Z,1.40
2022-10-15T12:05:14.031Z,1.10
2022-10-15T12:07:45.219Z,1.02
2022-10-15T12:10:34.362Z,1.02
2022-10-15T12:13:10.242Z,1.00
2022-10-15T12:15:49.105Z,1.00
2022-10-15T12:18:28.784Z,1.00
2022-10-15T12:20:58.741Z,0.93
2022-10-15T12:23:41.276Z,0.85
2022-10-15T12:26:32.486Z,0.90
2022-10-15T12:29:03.733Z,1.10
2022-10-15T12:31:58.887Z,1.00
2022-10-15T12:34:42.796Z,0.73
2022-10-15T12:37:19.924Z,0.80
2022-10-15T12:39:56.223Z,0.80
2022-10-15T12:42:28.237Z,0.80
2022-10-15T12:44:58.947Z,0.60
2022-10-15T12:47:49.814Z,0.88
2022-10-15T12:50:21.682Z,0.70
2022-10-15T12:53:00.500Z,0.80
2022-10-15T12:55:35.183Z,0.70
2022-10-15T12:58:35.811Z,0.60
2022-10-15T13:01:08.785Z,0.70
2022-10-15T13:03:40.743Z,0.60
2022-10-15T13:06:24.790Z,0.60
2022-10-15T13:08:58.048Z,0.73
2022-10-15T13:11:30.177Z,0.73
2022-10-15T13:14:03.742Z,0.77
2022-10-15T13:16:32.800Z,0.80
2022-10-15T13:19:01.933Z,0.90
2022-10-15T13:21:53.980Z,0.50
2022-10-15T13:24:25.208Z,0.80
2022-10-15T13:26:54.789Z,0.70
2022-10-15T13:29:26.828Z,0.60
2022-10-15T13:31:58.462Z,0.70
2022-10-15T13:34:29.961Z,0.55
2022-10-15T13:37:00.228Z,0.52
2022-10-15T13:42:10.961Z,0.60
2022-10-15T13:44:41.041Z,12.48
2022-10-15T13:47:29.525Z,0.90
2022-10-15T13:50:22.345Z,0.50
2022-10-15T13:52:55.514Z,0.90
2022-10-15T13:55:28.395Z,0.65
2022-10-15T13:58:01.665Z,0.90
2022-10-15T14:00:34.905Z,0.95
2022-10-15T14:03:19.837Z,0.80
2022-10-15T14:05:50.862Z,0.80
2022-10-15T14:10:52.131Z,0.70
2022-10-15T14:13:20.948Z,0.93
2022-10-15T14:16:12.728Z,0.65
2022-10-15T14:18:48.141Z,0.90
2022-10-15T14:21:21.477Z,0.80
2022-10-15T14:23:51.129Z,5.35
2022-10-15T14:26:25.895Z,1.70
2022-10-15T14:28:55.975Z,0.95
2022-10-15T14:31:34.644Z,9.93
2022-10-15T14:34:03.395Z,1.27
2022-10-15T14:36:33.737Z,1.10
2022-10-15T14:39:31.510Z,0.73
2022-10-15T14:42:02.567Z,0.88
2022-10-15T14:44:46.711Z,0.68
2022-10-15T14:47:33.168Z,0.93
2022-10-15T14:50:04.590Z,0.68
2022-10-15T14:55:13.912Z,0.77
2022-10-15T14:57:45.080Z,0.73
2022-10-15T15:00:22.139Z,0.98
2022-10-15T15:02:52.065Z,0.75
2022-10-15T15:05:23.892Z,0.82
2022-10-15T15:07:52.597Z,0.90
2022-10-15T15:10:21.913Z,0.80
2022-10-15T15:12:54.321Z,0.60
2022-10-15T15:15:26.389Z,0.90
2022-10-15T15:17:56.296Z,1.00
2022-10-15T15:20:25.979Z,0.98
2022-10-15T15:22:56.222Z,0.90
2022-10-15T15:25:30.643Z,0.82
2022-10-15T15:27:59.166Z,0.77
2022-10-15T15:30:30.351Z,0.98
2022-10-15T15:33:00.881Z,0.80
2022-10-15T15:35:38.083Z,0.75
2022-10-15T15:38:08.925Z,0.60
2022-10-15T15:40:37.570Z,0.68
2022-10-15T15:43:05.914Z,0.70
2022-10-15T15:45:34.350Z,0.80
2022-10-15T15:48:04.895Z,0.80
2022-10-15T15:50:33.354Z,0.70
2022-10-15T15:53:01.743Z,0.45
2022-10-15T15:55:30.023Z,0.57
2022-10-15T15:57:58.361Z,0.60
2022-10-15T16:00:26.637Z,0.50
2022-10-15T16:02:57.866Z,0.50
2022-10-15T16:05:28.056Z,0.50
2022-10-15T16:07:56.355Z,0.60
2022-10-15T16:10:25.281Z,0.32
2022-10-15T16:12:53.564Z,0.50
2022-10-15T16:15:21.811Z,0.40
2022-10-15T16:17:50.104Z,0.43
2022-10-15T16:20:18.837Z,0.40
2022-10-15T16:22:51.094Z,0.40
2022-10-15T16:25:19.686Z,0.60
2022-10-15T16:27:49.418Z,0.55
2022-10-15T16:30:18.124Z,0.80
2022-10-15T16:32:47.190Z,0.63
2022-10-15T16:35:15.602Z,0.65
2022-10-15T16:37:43.868Z,0.68
2022-10-15T16:40:14.977Z,0.85
2022-10-15T16:42:43.193Z,0.70
2022-10-15T16:45:12.530Z,1.40
2022-10-15T16:47:40.779Z,1.33
2022-10-15T16:50:10.505Z,1.58
2022-10-15T16:52:38.889Z,1.35
2022-10-15T16:55:08.399Z,1.02
2022-10-15T16:57:38.058Z,1.20
2022-10-15T17:00:07.561Z,1.10
2022-10-15T17:02:35.823Z,1.10
2022-10-15T17:05:04.167Z,1.20
2022-10-15T17:07:32.386Z,0.88
2022-10-15T17:10:00.802Z,0.75
2022-10-15T17:12:29.192Z,11.80
2022-10-15T17:14:58.862Z,3.90
2022-10-15T17:17:27.081Z,1.70
2022-10-15T17:19:55.541Z,2.05
2022-10-15T17:22:24.105Z,1.45
2022-10-15T17:24:52.481Z,1.20
2022-10-15T17:27:20.759Z,1.25
2022-10-15T17:29:48.980Z,1.13
2022-10-15T17:32:18.672Z,1.27
2022-10-15T17:34:46.946Z,1.40
2022-10-15T17:37:15.359Z,1.40
2022-10-15T17:39:43.783Z,1.15
2022-10-15T17:42:13.214Z,1.20
2022-10-15T17:44:41.466Z,1.45
2022-10-15T17:47:09.738Z,1.05
2022-10-15T17:49:39.465Z,1.08
2022-10-15T17:52:07.786Z,0.90
2022-10-15T17:54:36.170Z,1.10
2022-10-15T17:57:04.493Z,1.10
2022-10-15T17:59:32.727Z,1.10
2022-10-15T18:02:02.035Z,1.40
2022-10-15T18:04:30.895Z,1.52
2022-10-15T18:07:00.571Z,1.33
2022-10-15T18:09:29.557Z,1.20
2022-10-15T18:11:58.689Z,1.27
2022-10-15T18:14:27.126Z,0.95
2022-10-15T18:16:55.487Z,1.08
2022-10-15T18:19:25.620Z,1.10
2022-10-15T18:21:54.320Z,0.80
2022-10-15T18:24:24.368Z,1.10
2022-10-15T18:26:53.041Z,1.30
2022-10-15T18:29:22.428Z,1.10
2022-10-15T18:31:56.200Z,1.08
2022-10-15T18:34:25.604Z,1.35
2022-10-15T18:36:53.881Z,1.25
2022-10-15T18:39:23.525Z,1.20
2022-10-15T18:41:51.773Z,1.20
2022-10-15T18:44:21.595Z,1.20
2022-10-15T18:46:50.039Z,1.08
2022-10-15T18:49:20.745Z,1.27
2022-10-15T18:51:51.835Z,1.35
2022-10-15T18:54:20.907Z,1.30
2022-10-15T18:56:51.023Z,1.50
2022-10-15T18:59:19.447Z,1.50
2022-10-15T19:01:49.347Z,1.08
2022-10-15T19:04:20.174Z,1.52
2022-10-15T19:06:51.026Z,1.42
2022-10-15T19:09:22.471Z,1.38
2022-10-15T19:11:54.427Z,1.40
2022-10-15T19:14:23.935Z,1.30
2022-10-15T19:16:53.298Z,1.35
2022-10-15T19:19:23.993Z,1.38
2022-10-15T19:21:53.415Z,1.27
2022-10-15T19:24:22.746Z,1.15
2022-10-15T19:26:53.861Z,1.25
2022-10-15T19:31:54.452Z,1.35
2022-10-15T19:34:23.311Z,1.30
2022-10-15T19:36:51.794Z,1.38
2022-10-15T19:39:22.606Z,1.55
2022-10-15T19:41:53.601Z,1.20
2022-10-15T19:46:54.498Z,1.30
2022-10-15T19:49:22.845Z,1.20
2022-10-15T19:51:52.230Z,1.50
2022-10-15T19:54:20.572Z,1.50
2022-10-15T19:56:48.898Z,1.63
2022-10-15T19:59:18.849Z,1.20
2022-10-15T20:01:47.160Z,1.50
2022-10-15T20:04:15.443Z,1.67
2022-10-15T20:06:43.747Z,2.47
2022-10-15T20:09:11.985Z,1.80
2022-10-15T20:11:40.294Z,1.85
2022-10-15T20:14:08.507Z,2.10
2022-10-15T20:16:38.623Z,1.73
2022-10-15T20:19:07.443Z,1.53
2022-10-15T20:21:35.796Z,1.80
2022-10-15T20:24:04.802Z,1.60
2022-10-15T20:26:33.780Z,1.60
2022-10-15T20:29:02.151Z,1.58
2022-10-15T20:31:33.046Z,1.15
2022-10-15T20:34:03.768Z,1.20
2022-10-15T20:36:32.042Z,1.60
2022-10-15T20:39:01.327Z,1.70
2022-10-15T20:41:30.124Z,1.73
2022-10-15T20:43:58.760Z,1.63
2022-10-15T20:46:32.625Z,1.58
2022-10-15T20:49:08.872Z,1.50
2022-10-15T20:51:39.508Z,1.70
2022-10-15T20:54:08.244Z,1.80
2022-10-15T20:56:37.029Z,1.30
2022-10-15T20:59:06.117Z,1.25
2022-10-15T21:01:35.649Z,1.30
2022-10-15T21:04:05.822Z,1.42
2022-10-15T21:06:34.435Z,1.43
2022-10-15T21:09:02.814Z,1.30
2022-10-15T21:11:31.161Z,1.45
2022-10-15T21:14:01.833Z,1.50
2022-10-15T21:16:30.103Z,1.98
2022-10-15T21:18:58.339Z,1.70
2022-10-15T21:21:29.698Z,1.40
2022-10-15T21:23:59.785Z,1.48
2022-10-15T21:26:28.110Z,1.40
2022-10-15T21:28:57.633Z,1.60
2022-10-15T21:31:26.794Z,1.38
2022-10-15T21:33:57.109Z,1.50
2022-10-15T21:36:28.883Z,1.55
2022-10-15T21:38:59.689Z,1.40
2022-10-15T21:41:30.674Z,1.40
2022-10-15T21:43:59.427Z,1.30
2022-10-15T21:46:28.571Z,1.48
2022-10-15T21:48:56.829Z,1.60
2022-10-15T21:51:29.027Z,1.30
2022-10-15T21:53:59.260Z,1.50
2022-10-15T21:56:27.799Z,1.93
2022-10-15T21:58:56.233Z,1.25
2022-10-15T22:01:27.111Z,1.80
2022-10-15T22:04:01.627Z,1.40
2022-10-15T22:06:32.019Z,1.50
2022-10-15T22:09:01.124Z,1.20
2022-10-15T22:11:31.646Z,1.50
2022-10-15T22:14:01.954Z,1.35
2022-10-15T22:16:30.823Z,1.42
2022-10-15T22:18:59.473Z,1.70
2022-10-15T22:21:31.149Z,1.50
2022-10-15T22:24:01.469Z,1.55
2022-10-15T22:26:32.294Z,1.45
2022-10-15T22:29:02.935Z,1.50
2022-10-15T22:31:31.833Z,1.65
2022-10-15T22:34:00.263Z,1.90
2022-10-15T22:36:32.134Z,1.52
2022-10-15T22:39:02.412Z,1.70
2022-10-15T22:41:31.638Z,1.73
2022-10-15T22:44:01.081Z,1.80
2022-10-15T22:46:29.910Z,1.30
2022-10-15T22:48:58.197Z,1.58
2022-10-15T22:51:26.470Z,1.63
2022-10-15T22:53:58.128Z,1.48
2022-10-15T22:56:27.929Z,1.35
2022-10-15T22:58:57.400Z,1.48
2022-10-15T23:01:27.848Z,1.38
2022-10-15T23:03:58.215Z,1.20
2022-10-15T23:06:27.334Z,1.10
2022-10-15T23:08:58.121Z,1.45
2022-10-15T23:11:30.018Z,1.52
2022-10-15T23:14:00.430Z,1.50
2022-10-15T23:16:32.317Z,1.00
2022-10-15T23:19:02.873Z,1.75
2022-10-15T23:21:34.749Z,1.30
2022-10-15T23:24:08.337Z,1.65
2022-10-15T23:26:38.062Z,1.42
2022-10-15T23:29:08.713Z,1.58
2022-10-15T23:31:37.760Z,1.67
2022-10-15T23:34:07.122Z,1.40
2022-10-15T23:36:35.813Z,1.48
2022-10-15T23:39:07.138Z,1.45
2022-10-15T23:41:35.472Z,1.63
2022-10-15T23:44:03.722Z,1.50
2022-10-15T23:46:31.915Z,1.33
2022-10-15T23:49:00.157Z,1.55
2022-10-15T23:51:30.242Z,1.50
2022-10-15T23:54:00.761Z,1.55
2022-10-15T23:56:32.054Z,1.33
2022-10-15T23:59:01.925Z,1.40
